createdAt,value
2018-11-01T00:01:32.589Z,6.40
2018-11-01T00:04:02.066Z,5.57
2018-11-01T00:06:30.815Z,5.30
2018-11-01T00:09:00.368Z,7.80
2018-11-01T00:11:29.409Z,5.10
2018-11-01T00:13:58.107Z,6.10
2018-11-01T00:16:26.839Z,6.00
2018-11-01T00:18:55.544Z,5.30
2018-11-01T00:21:24.251Z,6.87
2018-11-01T00:23:53.289Z,6.37
2018-11-01T00:26:22.023Z,5.30
2018-11-01T00:28:50.723Z,5.43
2018-11-01T00:31:19.444Z,5.53
2018-11-01T00:33:48.211Z,5.83
2018-11-01T00:36:16.899Z,5.77
2018-11-01T00:38:45.832Z,4.83
2018-11-01T00:41:14.615Z,5.20
2018-11-01T00:43:43.400Z,5.73
2018-11-01T00:46:12.186Z,6.47
2018-11-01T00:48:40.879Z,5.83
2018-11-01T00:51:09.575Z,7.93
2018-11-01T00:53:38.571Z,6.10
2018-11-01T00:56:07.494Z,5.47
2018-11-01T00:58:36.187Z,6.10
2018-11-01T01:01:05.182Z,6.43
2018-11-01T01:03:33.912Z,5.60
2018-11-01T01:06:02.607Z,5.90
2018-11-01T01:08:31.454Z,5.53
2018-11-01T01:11:00.212Z,5.70
2018-11-01T01:13:28.937Z,6.17
2018-11-01T01:15:57.652Z,6.17
2018-11-01T01:18:26.595Z,6.10
2018-11-01T01:20:55.297Z,5.80
2018-11-01T01:23:23.983Z,6.10
2018-11-01T01:25:52.846Z,6.57
2018-11-01T01:28:21.548Z,5.90
2018-11-01T01:30:50.277Z,8.00
2018-11-01T01:33:19.015Z,5.80
2018-11-01T01:35:47.718Z,5.70
2018-11-01T01:38:16.458Z,7.70
2018-11-01T01:40:45.179Z,5.93
2018-11-01T01:43:13.932Z,5.60
2018-11-01T01:45:42.675Z,5.20
2018-11-01T01:48:11.485Z,6.00
2018-11-01T01:50:40.202Z,6.17
2018-11-01T01:53:08.897Z,6.77
2018-11-01T01:55:37.586Z,6.00
2018-11-01T01:58:06.336Z,6.50
2018-11-01T02:00:35.134Z,5.47
2018-11-01T02:03:03.929Z,6.23
2018-11-01T02:05:32.785Z,7.43
2018-11-01T02:08:01.496Z,5.50
2018-11-01T02:10:30.245Z,6.93
2018-11-01T02:12:58.968Z,6.63
2018-11-01T02:15:27.780Z,6.03
2018-11-01T02:17:56.592Z,6.10
2018-11-01T02:20:25.287Z,6.33
2018-11-01T02:22:53.999Z,5.90
2018-11-01T02:25:22.811Z,5.30
2018-11-01T02:27:57.035Z,6.20
2018-11-01T02:30:25.746Z,5.57
2018-11-01T02:32:54.581Z,5.73
2018-11-01T02:35:23.256Z,6.23
2018-11-01T02:37:52.039Z,6.20
2018-11-01T02:40:20.664Z,6.10
2018-11-01T02:42:49.352Z,6.40
2018-11-01T02:45:18.062Z,6.90
2018-11-01T02:47:46.752Z,5.87
2018-11-01T02:50:15.579Z,6.77
2018-11-01T02:52:44.323Z,5.67
2018-11-01T02:55:13.015Z,5.00
2018-11-01T02:57:41.719Z,6.77
2018-11-01T03:00:13.194Z,7.17
2018-11-01T03:02:41.883Z,6.87
2018-11-01T03:05:11.160Z,6.13
2018-11-01T03:07:40.039Z,7.27
2018-11-01T03:10:10.307Z,7.70
2018-11-01T03:12:39.443Z,5.83
2018-11-01T03:15:09.759Z,6.47
2018-11-01T03:17:38.463Z,6.43
2018-11-01T03:20:07.884Z,6.83
2018-11-01T03:22:36.781Z,7.23
2018-11-01T03:25:05.898Z,7.30
2018-11-01T03:27:34.602Z,8.67
2018-11-01T03:30:03.349Z,6.63
2018-11-01T03:32:32.072Z,6.60
2018-11-01T03:35:00.788Z,6.87
2018-11-01T03:37:29.514Z,6.77
2018-11-01T03:39:58.215Z,7.03
2018-11-01T03:42:26.939Z,7.30
2018-11-01T03:44:55.717Z,8.77
2018-11-01T03:47:24.426Z,9.07
2018-11-01T03:49:53.119Z,6.60
2018-11-01T03:52:21.850Z,6.77
2018-11-01T03:54:50.508Z,8.13
2018-11-01T03:57:19.664Z,6.93
2018-11-01T03:59:48.448Z,6.70
2018-11-01T04:02:17.136Z,7.20
2018-11-01T04:04:45.860Z,7.33
2018-11-01T04:07:14.935Z,8.83
2018-11-01T04:09:43.623Z,6.73
2018-11-01T04:12:12.332Z,7.50
2018-11-01T04:14:41.144Z,25.03
2018-11-01T04:17:10.080Z,11.20
2018-11-01T04:19:38.587Z,8.60
2018-11-01T04:22:07.540Z,8.77
2018-11-01T04:24:37.241Z,11.07
2018-11-01T04:27:06.230Z,8.23
2018-11-01T04:29:35.964Z,8.90
2018-11-01T04:32:05.276Z,8.30
2018-11-01T04:34:33.980Z,7.10
2018-11-01T04:37:02.684Z,7.03
2018-11-01T04:39:31.411Z,7.83
2018-11-01T04:42:00.119Z,8.80
2018-11-01T04:44:28.885Z,8.03
2018-11-01T04:46:57.587Z,8.47
2018-11-01T04:49:26.311Z,6.87
2018-11-01T04:51:55.003Z,7.30
2018-11-01T04:54:23.722Z,8.13
2018-11-01T04:56:52.468Z,8.30
2018-11-01T04:59:21.293Z,7.83
2018-11-01T05:01:49.970Z,7.50
2018-11-01T05:04:18.735Z,7.70
2018-11-01T05:06:47.419Z,9.03
2018-11-01T05:09:16.139Z,8.97
2018-11-01T05:11:45.127Z,7.23
2018-11-01T05:14:13.828Z,8.20
2018-11-01T05:16:42.595Z,9.50
2018-11-01T05:19:11.277Z,8.77
2018-11-01T05:21:40.156Z,11.60
2018-11-01T05:24:08.982Z,9.03
2018-11-01T05:26:37.753Z,8.53
2018-11-01T05:29:06.539Z,9.57
2018-11-01T05:31:35.575Z,7.67
2018-11-01T05:34:05.720Z,7.40
2018-11-01T05:36:34.416Z,6.60
2018-11-01T05:39:03.888Z,10.20
2018-11-01T05:41:32.599Z,7.87
2018-11-01T05:44:01.312Z,8.53
2018-11-01T05:46:30.020Z,7.03
2018-11-01T05:48:58.703Z,7.40
2018-11-01T05:51:27.386Z,8.13
2018-11-01T05:53:56.545Z,9.23
2018-11-01T05:56:25.395Z,7.20
2018-11-01T05:58:54.103Z,7.80
2018-11-01T06:01:28.295Z,9.40
2018-11-01T06:03:57.095Z,7.20
2018-11-01T06:06:25.863Z,7.70
2018-11-01T06:08:54.583Z,7.97
2018-11-01T06:11:23.273Z,7.87
2018-11-01T06:13:51.963Z,7.50
2018-11-01T06:16:20.647Z,7.70
2018-11-01T06:18:49.330Z,7.67
2018-11-01T06:21:18.043Z,7.33
2018-11-01T06:23:46.730Z,8.87
2018-11-01T06:26:16.439Z,7.50
2018-11-01T06:28:45.144Z,7.10
2018-11-01T06:31:13.847Z,6.30
2018-11-01T06:36:12.672Z,8.80
2018-11-01T06:38:41.486Z,7.30
2018-11-01T06:41:10.323Z,8.37
2018-11-01T06:43:39.044Z,7.60
2018-11-01T06:46:07.791Z,9.90
2018-11-01T06:48:36.507Z,8.03
2018-11-01T06:51:05.698Z,10.20
2018-11-01T06:53:34.589Z,7.53
2018-11-01T06:56:03.290Z,7.77
2018-11-01T06:58:32.174Z,9.00
2018-11-01T07:01:00.900Z,7.50
2018-11-01T07:03:29.607Z,9.90
2018-11-01T07:05:58.307Z,8.33
2018-11-01T07:08:27.050Z,10.03
2018-11-01T07:10:55.747Z,13.00
2018-11-01T07:13:24.455Z,9.13
2018-11-01T07:15:53.143Z,9.57
2018-11-01T07:18:21.846Z,9.70
2018-11-01T07:20:50.565Z,9.30
2018-11-01T07:23:19.255Z,8.93
2018-11-01T07:25:48.067Z,9.13
2018-11-01T07:28:16.707Z,8.90
2018-11-01T07:30:45.443Z,8.57
2018-11-01T07:33:14.145Z,7.10
2018-11-01T07:35:42.839Z,9.23
2018-11-01T07:38:11.580Z,8.43
2018-11-01T07:40:40.336Z,9.37
2018-11-01T07:43:09.019Z,9.90
2018-11-01T07:45:37.720Z,9.20
2018-11-01T07:48:06.427Z,8.87
2018-11-01T07:50:35.407Z,9.80
2018-11-01T07:53:04.115Z,9.70
2018-11-01T07:55:32.972Z,10.27
2018-11-01T07:58:01.714Z,9.57
2018-11-01T08:00:30.635Z,9.83
2018-11-01T08:02:59.424Z,9.03
2018-11-01T08:05:28.155Z,8.47
2018-11-01T08:07:56.851Z,6.70
2018-11-01T08:10:25.570Z,6.73
2018-11-01T08:12:54.316Z,6.20
2018-11-01T08:15:23.032Z,6.43
2018-11-01T08:17:51.820Z,5.93
2018-11-01T08:20:20.735Z,9.43
2018-11-01T08:22:49.308Z,7.63
2018-11-01T08:25:18.156Z,7.50
2018-11-01T08:27:46.900Z,7.97
2018-11-01T08:30:16.831Z,6.83
2018-11-01T08:32:45.572Z,6.20
2018-11-01T08:35:14.350Z,7.40
2018-11-01T08:37:43.955Z,5.80
2018-11-01T08:40:13.266Z,5.53
2018-11-01T08:42:42.471Z,5.07
2018-11-01T08:45:15.277Z,6.23
2018-11-01T08:47:44.032Z,6.23
2018-11-01T08:50:13.792Z,6.00
2018-11-01T08:52:43.115Z,5.50
2018-11-01T08:55:12.134Z,6.20
2018-11-01T08:57:42.055Z,5.43
2018-11-01T09:00:11.477Z,9.40
2018-11-01T09:02:40.793Z,5.50
2018-11-01T09:05:10.507Z,5.20
2018-11-01T09:07:39.677Z,6.40
2018-11-01T09:12:55.489Z,6.20
2018-11-01T09:15:24.303Z,5.80
2018-11-01T09:17:53.007Z,5.70
2018-11-01T09:20:21.702Z,5.57
2018-11-01T09:22:50.411Z,5.93
2018-11-01T09:25:19.105Z,5.43
2018-11-01T09:27:47.999Z,8.10
2018-11-01T09:30:16.704Z,7.03
2018-11-01T09:32:45.481Z,6.90
2018-11-01T09:35:14.160Z,5.70
2018-11-01T09:37:43.266Z,5.83
2018-11-01T09:40:13.383Z,6.10
2018-11-01T09:42:42.708Z,6.90
2018-11-01T09:45:11.705Z,6.63
2018-11-01T09:47:40.663Z,6.30
2018-11-01T09:50:10.032Z,5.93
2018-11-01T09:52:39.040Z,7.30
2018-11-01T09:55:07.808Z,6.23
2018-11-01T09:57:36.759Z,5.53
2018-11-01T10:00:07.856Z,5.13
2018-11-01T10:02:36.567Z,7.00
2018-11-01T10:05:06.619Z,5.70
2018-11-01T10:07:35.406Z,5.30
2018-11-01T10:10:05.685Z,10.53
2018-11-01T10:12:34.520Z,9.30
2018-11-01T10:15:03.761Z,9.80
2018-11-01T10:17:32.950Z,7.90
2018-11-01T10:20:01.252Z,7.50
2018-11-01T10:22:30.037Z,8.47
2018-11-01T10:24:58.747Z,7.20
2018-11-01T10:27:27.507Z,10.43
2018-11-01T10:29:56.252Z,7.13
2018-11-01T10:32:24.940Z,6.70
2018-11-01T10:34:53.620Z,9.70
2018-11-01T10:37:22.335Z,7.10
2018-11-01T10:39:51.062Z,8.93
2018-11-01T10:42:19.755Z,8.33
2018-11-01T10:44:49.311Z,8.50
2018-11-01T10:47:18.020Z,8.33
2018-11-01T10:49:46.787Z,8.53
2018-11-01T10:52:15.609Z,8.03
2018-11-01T10:54:44.295Z,8.43
2018-11-01T10:57:13.137Z,7.73
2018-11-01T10:59:41.864Z,7.50
2018-11-01T11:02:19.962Z,8.10
2018-11-01T11:04:48.798Z,8.90
2018-11-01T11:07:17.483Z,8.70
2018-11-01T11:09:46.211Z,8.03
2018-11-01T11:12:14.904Z,10.30
2018-11-01T11:14:43.892Z,7.30
2018-11-01T11:17:12.616Z,10.63
2018-11-01T11:19:41.551Z,8.13
2018-11-01T11:22:10.443Z,7.93
2018-11-01T11:24:39.152Z,10.53
2018-11-01T11:27:08.264Z,8.00
2018-11-01T11:29:37.048Z,9.33
2018-11-01T11:32:05.772Z,8.23
2018-11-01T11:34:34.575Z,7.63
2018-11-01T11:37:03.368Z,8.97
2018-11-01T11:39:32.209Z,9.40
2018-11-01T11:42:00.896Z,9.83
2018-11-01T11:44:29.644Z,8.53
2018-11-01T11:46:58.344Z,9.17
2018-11-01T11:49:27.101Z,9.47
2018-11-01T11:51:55.815Z,9.00
2018-11-01T11:54:24.681Z,9.33
2018-11-01T11:56:53.437Z,9.00
2018-11-01T11:59:22.095Z,8.73
2018-11-01T12:01:50.813Z,12.70
2018-11-01T12:04:19.515Z,7.63
2018-11-01T12:06:48.207Z,8.80
2018-11-01T12:09:16.948Z,9.43
2018-11-01T12:11:45.803Z,8.30
2018-11-01T12:14:14.572Z,7.67
2018-11-01T12:16:43.795Z,10.57
2018-11-01T12:19:12.510Z,9.30
2018-11-01T12:21:41.400Z,7.80
2018-11-01T12:24:10.140Z,9.00
2018-11-01T12:26:38.857Z,9.77
2018-11-01T12:29:08.483Z,9.80
2018-11-01T12:31:37.261Z,11.20
2018-11-01T12:34:06.136Z,14.10
2018-11-01T12:36:34.888Z,11.23
2018-11-01T12:39:04.365Z,10.80
2018-11-01T12:41:33.361Z,10.80
2018-11-01T12:44:02.059Z,10.90
2018-11-01T12:46:30.877Z,13.70
2018-11-01T12:48:59.701Z,12.97
2018-11-01T12:51:28.467Z,15.33
2018-11-01T12:53:57.777Z,16.60
2018-11-01T12:56:26.892Z,18.73
2018-11-01T12:58:55.660Z,18.80
2018-11-01T13:01:24.424Z,14.50
2018-11-01T13:03:53.155Z,18.53
2018-11-01T13:06:22.019Z,14.77
2018-11-01T13:08:50.728Z,13.83
2018-11-01T13:11:19.913Z,16.33
2018-11-01T13:13:48.776Z,13.40
2018-11-01T13:16:17.555Z,14.47
2018-11-01T13:18:46.284Z,16.13
2018-11-01T13:21:15.338Z,15.70
2018-11-01T13:23:44.220Z,15.63
2018-11-01T13:26:12.932Z,14.50
2018-11-01T13:28:41.663Z,14.50
2018-11-01T13:31:10.398Z,15.47
2018-11-01T13:33:39.220Z,16.00
2018-11-01T13:36:07.980Z,17.03
2018-11-01T13:38:36.696Z,13.40
2018-11-01T13:41:06.660Z,14.83
2018-11-01T13:43:34.948Z,13.63
2018-11-01T13:46:03.673Z,14.23
2018-11-01T13:48:32.512Z,12.80
2018-11-01T13:51:01.116Z,14.17
2018-11-01T13:53:30.704Z,13.30
2018-11-01T13:55:59.504Z,14.33
2018-11-01T13:58:28.208Z,14.43
2018-11-01T14:00:57.040Z,15.67
2018-11-01T14:03:25.892Z,15.77
2018-11-01T14:05:54.776Z,14.70
2018-11-01T14:08:23.822Z,15.83
2018-11-01T14:10:52.945Z,15.60
2018-11-01T14:13:21.736Z,15.47
2018-11-01T14:15:50.451Z,15.80
2018-11-01T14:18:19.206Z,15.00
2018-11-01T14:20:48.020Z,16.10
2018-11-01T14:23:18.029Z,18.17
2018-11-01T14:25:46.960Z,17.50
2018-11-01T14:28:15.806Z,15.90
2018-11-01T14:30:44.511Z,18.07
2018-11-01T14:33:14.269Z,17.70
2018-11-01T14:35:43.047Z,18.50
2018-11-01T14:38:11.891Z,19.30
2018-11-01T14:40:41.381Z,20.57
2018-11-01T14:43:10.230Z,18.93
2018-11-01T14:45:38.912Z,19.93
2018-11-01T14:48:07.933Z,18.73
2018-11-01T14:50:36.643Z,19.90
2018-11-01T14:53:06.509Z,18.63
2018-11-01T14:55:36.250Z,19.07
2018-11-01T14:58:04.916Z,22.13
2018-11-01T15:00:32.251Z,24.60
2018-11-01T15:03:01.242Z,25.13
2018-11-01T15:05:30.084Z,26.00
2018-11-01T15:07:58.856Z,27.60
2018-11-01T15:10:27.556Z,26.60
2018-11-01T15:12:56.325Z,22.53
2018-11-01T15:15:25.143Z,23.90
2018-11-01T15:17:53.816Z,20.00
2018-11-01T15:20:22.680Z,18.93
2018-11-01T15:22:51.409Z,16.43
2018-11-01T15:25:20.193Z,16.93
2018-11-01T15:27:48.936Z,14.77
2018-11-01T15:30:17.865Z,14.33
2018-11-01T15:32:48.010Z,13.70
2018-11-01T15:35:16.721Z,12.50
2018-11-01T15:37:45.452Z,11.50
2018-11-01T15:40:14.296Z,11.50
2018-11-01T15:42:43.475Z,9.30
2018-11-01T15:45:13.114Z,12.00
2018-11-01T15:47:42.527Z,9.83
2018-11-01T15:50:12.441Z,10.70
2018-11-01T15:52:41.343Z,9.93
2018-11-01T15:55:10.142Z,11.20
2018-11-01T15:57:39.004Z,9.40
2018-11-01T16:00:09.915Z,13.97
2018-11-01T16:02:40.278Z,9.93
2018-11-01T16:05:09.563Z,11.60
2018-11-01T16:07:38.345Z,12.47
2018-11-01T16:10:07.930Z,11.90
2018-11-01T16:12:36.916Z,10.87
2018-11-01T16:15:09.388Z,12.57
2018-11-01T16:17:38.143Z,15.03
2018-11-01T16:20:07.342Z,9.73
2018-11-01T16:22:36.051Z,11.97
2018-11-01T16:25:05.120Z,14.83
2018-11-01T16:27:34.203Z,11.67
2018-11-01T16:30:02.965Z,12.47
2018-11-01T16:32:31.700Z,11.27
2018-11-01T16:35:00.491Z,12.30
2018-11-01T16:37:30.039Z,15.83
2018-11-01T16:39:58.760Z,14.90
2018-11-01T16:42:27.670Z,13.37
2018-11-01T16:44:56.379Z,15.20
2018-11-01T16:47:25.098Z,11.07
2018-11-01T16:49:53.911Z,12.63
2018-11-01T16:52:22.759Z,11.93
2018-11-01T16:54:51.475Z,16.27
2018-11-01T16:57:20.235Z,16.33
2018-11-01T16:59:48.997Z,17.10
2018-11-01T17:02:17.723Z,18.97
2018-11-01T17:04:46.443Z,17.10
2018-11-01T17:07:15.211Z,16.93
2018-11-01T17:09:44.017Z,16.90
2018-11-01T17:12:12.752Z,18.10
2018-11-01T17:14:41.611Z,16.40
2018-11-01T17:17:10.339Z,18.17
2018-11-01T17:19:39.064Z,17.23
2018-11-01T17:22:07.819Z,18.53
2018-11-01T17:24:36.543Z,18.27
2018-11-01T17:27:05.843Z,19.13
2018-11-01T17:29:34.544Z,18.03
2018-11-01T17:32:03.482Z,18.97
2018-11-01T17:34:32.184Z,19.80
2018-11-01T17:37:01.237Z,19.77
2018-11-01T17:39:29.973Z,19.57
2018-11-01T17:41:58.732Z,20.90
2018-11-01T17:44:27.436Z,18.93
2018-11-01T17:46:56.151Z,19.07
2018-11-01T17:49:24.874Z,18.87
2018-11-01T17:51:54.124Z,18.87
2018-11-01T17:54:22.829Z,19.13
2018-11-01T17:56:51.600Z,18.17
2018-11-01T17:59:20.291Z,18.43
2018-11-01T18:01:49.107Z,19.23
2018-11-01T18:04:17.760Z,17.83
2018-11-01T18:06:46.480Z,18.93
2018-11-01T18:09:15.918Z,22.20
2018-11-01T18:11:45.016Z,21.10
2018-11-01T18:14:13.829Z,23.43
2018-11-01T18:16:42.523Z,19.43
2018-11-01T18:19:11.271Z,24.30
2018-11-01T18:21:39.988Z,23.10
2018-11-01T18:24:08.692Z,19.60
2018-11-01T18:26:37.432Z,21.93
2018-11-01T18:29:06.455Z,23.87
2018-11-01T18:31:35.195Z,23.40
2018-11-01T18:34:03.824Z,22.30
2018-11-01T18:36:32.606Z,24.80
2018-11-01T18:39:01.345Z,25.20
2018-11-01T18:41:30.108Z,26.90
2018-11-01T18:43:58.894Z,25.83
2018-11-01T18:46:27.611Z,26.50
2018-11-01T18:48:56.362Z,23.83
2018-11-01T18:51:25.172Z,25.03
2018-11-01T18:53:53.921Z,28.00
2018-11-01T18:56:22.614Z,22.57
2018-11-01T18:58:51.368Z,21.87
2018-11-01T19:01:20.115Z,22.33
2018-11-01T19:03:48.891Z,22.37
2018-11-01T19:06:17.631Z,21.13
2018-11-01T19:08:46.416Z,19.63
2018-11-01T19:11:15.128Z,23.10
2018-11-01T19:13:43.932Z,21.07
2018-11-01T19:16:12.863Z,21.63
2018-11-01T19:18:41.632Z,21.33
2018-11-01T19:21:10.463Z,21.23
2018-11-01T19:23:39.243Z,19.93
2018-11-01T19:26:07.973Z,21.70
2018-11-01T19:28:36.715Z,17.20
2018-11-01T19:31:05.410Z,20.83
2018-11-01T19:33:34.120Z,19.00
2018-11-01T19:36:02.859Z,18.23
2018-11-01T19:38:31.584Z,16.97
2018-11-01T19:41:00.296Z,16.83
2018-11-01T19:43:29.027Z,21.63
2018-11-01T19:45:57.768Z,25.33
2018-11-01T19:48:26.504Z,15.33
2018-11-01T19:50:55.319Z,21.43
2018-11-01T19:53:24.058Z,26.30
2018-11-01T19:55:52.807Z,32.83
2018-11-01T19:58:21.523Z,26.63
2018-11-01T20:00:50.432Z,44.70
2018-11-01T20:03:19.153Z,15.93
2018-11-01T20:05:47.931Z,15.17
2018-11-01T20:08:16.666Z,16.63
2018-11-01T20:10:45.430Z,19.00
2018-11-01T20:13:14.130Z,32.00
2018-11-01T20:15:42.841Z,24.13
2018-11-01T20:18:11.551Z,19.23
2018-11-01T20:20:40.319Z,33.00
2018-11-01T20:23:09.016Z,15.33
2018-11-01T20:25:37.767Z,13.83
2018-11-01T20:28:06.520Z,16.17
2018-11-01T20:30:35.227Z,9.97
2018-11-01T20:33:04.031Z,11.60
2018-11-01T20:35:32.732Z,11.30
2018-11-01T20:38:01.539Z,11.80
2018-11-01T20:40:30.171Z,9.77
2018-11-01T20:42:58.912Z,12.77
2018-11-01T20:45:27.620Z,14.27
2018-11-01T20:47:56.352Z,13.70
2018-11-01T20:50:25.137Z,14.07
2018-11-01T20:52:53.807Z,11.73
2018-11-01T20:55:22.508Z,12.73
2018-11-01T20:57:51.262Z,13.33
2018-11-01T21:00:19.949Z,12.57
2018-11-01T21:02:48.669Z,38.33
2018-11-01T21:05:17.405Z,19.03
2018-11-01T21:07:46.131Z,9.50
2018-11-01T21:10:14.836Z,10.60
2018-11-01T21:12:43.652Z,19.13
2018-11-01T21:15:13.557Z,10.43
2018-11-01T21:17:42.353Z,22.43
2018-11-01T21:20:11.168Z,21.30
2018-11-01T21:22:40.210Z,18.03
2018-11-01T21:25:10.043Z,14.53
2018-11-01T21:27:38.833Z,10.70
2018-11-01T21:30:07.927Z,11.13
2018-11-01T21:32:36.660Z,18.00
2018-11-01T21:35:06.085Z,9.57
2018-11-01T21:37:34.652Z,13.63
2018-11-01T21:40:04.300Z,10.17
2018-11-01T21:42:33.103Z,11.33
2018-11-01T21:45:01.905Z,18.73
2018-11-01T21:47:30.645Z,13.07
2018-11-01T21:49:59.388Z,15.73
2018-11-01T21:52:28.215Z,10.80
2018-11-01T21:54:57.019Z,32.03
2018-11-01T21:57:25.864Z,10.07
2018-11-01T21:59:54.616Z,16.33
2018-11-01T22:02:23.416Z,20.10
2018-11-01T22:04:52.252Z,39.33
2018-11-01T22:07:21.104Z,42.10
2018-11-01T22:09:49.953Z,37.60
2018-11-01T22:12:18.953Z,20.97
2018-11-01T22:14:47.772Z,12.50
2018-11-01T22:17:16.522Z,17.40
2018-11-01T22:19:45.335Z,10.80
2018-11-01T22:22:14.085Z,18.43
2018-11-01T22:24:42.923Z,10.30
2018-11-01T22:27:11.700Z,11.90
2018-11-01T22:29:40.451Z,13.63
2018-11-01T22:32:09.376Z,12.10
2018-11-01T22:34:38.084Z,10.67
2018-11-01T22:37:06.824Z,10.60
2018-11-01T22:39:35.588Z,11.40
2018-11-01T22:42:04.519Z,12.20
2018-11-01T22:44:33.323Z,11.47
2018-11-01T22:47:02.043Z,11.30
2018-11-01T22:49:30.969Z,10.17
2018-11-01T22:52:00.296Z,10.47
2018-11-01T22:54:29.103Z,10.30
2018-11-01T22:56:58.004Z,13.37
2018-11-01T22:59:26.712Z,9.70
2018-11-01T23:01:55.423Z,9.97
2018-11-01T23:04:24.187Z,10.70
2018-11-01T23:06:52.997Z,10.43
2018-11-01T23:09:21.705Z,10.73
2018-11-01T23:11:50.426Z,10.57
2018-11-01T23:14:19.195Z,10.47
2018-11-01T23:16:47.899Z,9.30
2018-11-01T23:19:16.649Z,10.77
2018-11-01T23:21:45.428Z,10.20
2018-11-01T23:24:14.202Z,11.03
2018-11-01T23:26:42.959Z,9.87
2018-11-01T23:29:11.668Z,10.20
2018-11-01T23:31:40.491Z,9.90
2018-11-01T23:34:09.195Z,7.60
2018-11-01T23:36:43.381Z,8.20
2018-11-01T23:39:17.772Z,11.03
2018-11-01T23:41:51.906Z,7.43
2018-11-01T23:44:25.973Z,10.83
2018-11-01T23:47:00.156Z,8.50
2018-11-01T23:49:33.096Z,10.10
2018-11-01T23:52:09.615Z,10.43
2018-11-01T23:54:38.344Z,10.10
2018-11-01T23:57:07.051Z,10.10
2018-11-01T23:59:35.759Z,9.30
